Time;durP1;ratioP1;P1;durP2;ratioP2;P2;SDS_P1;SDS_P2;PMS_P1;PMS_P2;Temp;Humidity;BMP_temperature;BMP_pressure;BME280_temperature;BME280_humidity;BME280_pressure;Samples;Min_cycle;Max_cycle;Signal;HPM_P1;HPM_P2
2022/06/06 00:02:01;;;;;;;44.75;7.20;;;22.60;99.90;;;;;;4918958;29;20036;-83
2022/06/06 00:04:28;;;;;;;57.17;7.93;;;22.60;99.90;;;;;;4918863;29;20091;-84
2022/06/06 00:06:56;;;;;;;37.92;6.82;;;22.60;99.90;;;;;;4918882;29;20462;-84
2022/06/06 00:09:27;;;;;;;40.38;6.20;;;22.60;99.90;;;;;;4918447;29;20096;-82
2022/06/06 00:11:58;;;;;;;;;;;22.50;99.90;;;;;;4919173;29;20079;-82
2022/06/06 00:14:24;;;;;;;47.08;7.13;;;22.50;99.90;;;;;;4918641;29;19907;-84
2022/06/06 00:16:50;;;;;;;50.88;7.93;;;22.40;99.90;;;;;;4918597;29;20043;-85
2022/06/06 00:19:16;;;;;;;41.78;8.05;;;22.40;99.90;;;;;;4918399;29;20386;-82
2022/06/06 00:21:43;;;;;;;36.80;7.05;;;22.40;99.90;;;;;;4918032;29;20466;-84
2022/06/06 00:24:10;;;;;;;54.45;8.68;;;22.50;99.90;;;;;;4917677;29;20040;-85
2022/06/06 00:26:37;;;;;;;49.38;8.45;;;22.40;99.90;;;;;;4916664;29;20052;-85
2022/06/06 00:29:05;;;;;;;36.33;7.40;;;22.50;99.90;;;;;;4917877;29;20047;-82
2022/06/06 00:37:21;;;;;;;12.95;3.17;;;22.50;99.90;;;;;;4918251;29;20113;-85
2022/06/06 00:40:14;;;;;;;15.98;3.92;;;22.40;99.90;;;;;;4917832;29;20084;-85
2022/06/06 00:42:42;;;;;;;14.35;3.30;;;22.40;99.90;;;;;;4917937;29;20040;-82
2022/06/06 00:45:23;;;;;;;17.58;3.58;;;22.40;99.90;;;;;;4917943;29;20047;-83
2022/06/06 00:48:03;;;;;;;12.90;4.18;;;22.40;99.90;;;;;;4917748;29;20036;-84
2022/06/06 00:50:50;;;;;;;14.40;3.40;;;22.40;99.90;;;;;;4917782;29;20034;-85
2022/06/06 00:53:25;;;;;;;14.98;3.42;;;22.40;99.90;;;;;;4917959;29;20041;-84
2022/06/06 00:55:59;;;;;;;16.20;3.97;;;22.40;99.90;;;;;;4917387;29;20028;-83
2022/06/06 00:58:40;;;;;;;12.00;4.15;;;22.30;99.90;;;;;;4917440;29;20032;-84
2022/06/06 01:01:06;;;;;;;23.67;4.60;;;22.10;99.90;;;;;;4916960;29;20040;-85
2022/06/06 01:03:37;;;;;;;19.98;5.20;;;21.80;99.90;;;;;;4917633;29;20040;-82
2022/06/06 01:06:05;;;;;;;14.23;4.60;;;21.70;99.90;;;;;;4917389;29;20059;-83
2022/06/06 01:08:58;;;;;;;31.67;6.68;;;21.60;99.90;;;;;;4900407;29;20126;-84
2022/06/06 01:11:24;;;;;;;17.23;5.53;;;21.60;99.90;;;;;;4917455;29;20064;-85
2022/06/06 01:13:51;;;;;;;18.95;4.43;;;21.50;99.90;;;;;;4917588;29;20036;-85
2022/06/06 01:16:41;;;;;;;27.42;5.05;;;21.40;99.90;;;;;;4917561;29;20036;-82
2022/06/06 01:19:36;;;;;;;33.00;5.15;;;21.40;99.90;;;;;;4917108;29;20066;-85
2022/06/06 01:22:08;;;;;;;23.10;5.00;;;21.40;99.90;;;;;;4916890;29;20040;-85
2022/06/06 01:24:49;;;;;;;;;;;21.40;99.90;;;;;;4917807;29;20493;-84
2022/06/06 01:27:24;;;;;;;18.83;4.97;;;21.40;99.90;;;;;;4916646;29;19934;-82
2022/06/06 01:30:15;;;;;;;26.88;4.63;;;21.30;99.90;;;;;;4917051;29;20087;-82
2022/06/06 01:32:45;;;;;;;21.30;4.90;;;21.30;99.90;;;;;;4916716;29;20054;-83
2022/06/06 01:35:22;;;;;;;34.20;6.30;;;21.20;99.90;;;;;;4916759;29;20036;-82
2022/06/06 01:37:49;;;;;;;22.23;4.90;;;21.10;99.90;;;;;;4925535;29;20481;-84
2022/06/06 01:40:19;;;;;;;20.02;5.88;;;21.10;99.90;;;;;;4935913;29;20083;-84
2022/06/06 01:42:56;;;;;;;20.10;4.80;;;21.20;99.90;;;;;;4935981;29;20032;-82
2022/06/06 01:45:38;;;;;;;16.95;5.07;;;21.20;99.90;;;;;;4936166;29;20502;-83
2022/06/06 01:48:06;;;;;;;;;;;21.30;99.90;;;;;;4936047;29;20500;-85
2022/06/06 01:50:37;;;;;;;19.23;5.45;;;21.40;99.90;;;;;;4935607;29;19906;-82
2022/06/06 01:53:06;;;;;;;14.68;6.03;;;21.40;99.90;;;;;;4935727;29;20087;-83
2022/06/06 01:55:35;;;;;;;18.52;4.68;;;21.40;99.90;;;;;;4935799;29;20500;-82
2022/06/06 01:58:07;;;;;;;20.05;5.35;;;21.40;99.90;;;;;;4936031;29;20040;-83
2022/06/06 02:00:38;;;;;;;19.75;5.55;;;21.40;99.90;;;;;;4935700;29;20434;-83
2022/06/06 02:03:04;;;;;;;16.83;5.13;;;21.30;99.90;;;;;;4935700;29;20547;-82
2022/06/06 02:05:30;;;;;;;15.35;5.55;;;21.30;99.90;;;;;;4935177;29;20062;-85
2022/06/06 02:08:05;;;;;;;21.30;5.57;;;21.20;99.90;;;;;;4919083;29;20067;-85
2022/06/06 02:10:32;;;;;;;14.55;4.65;;;21.20;99.90;;;;;;4925320;29;20035;-83
2022/06/06 02:12:57;;;;;;;25.90;6.75;;;21.10;99.90;;;;;;4933053;29;20048;-82
2022/06/06 02:15:25;;;;;;;23.50;5.38;;;21.10;99.90;;;;;;4939725;29;20374;-85
2022/06/06 02:17:53;;;;;;;13.05;4.93;;;21.10;99.90;;;;;;4937553;29;20043;-83
2022/06/06 02:20:21;;;;;;;17.83;5.00;;;21.10;99.90;;;;;;4920925;29;20433;-85
2022/06/06 02:22:47;;;;;;;15.80;4.93;;;21.10;99.90;;;;;;4920387;29;20036;-84
2022/06/06 02:25:17;;;;;;;30.10;5.32;;;21.00;99.90;;;;;;4920329;29;20429;-83
2022/06/06 02:27:44;;;;;;;28.05;5.15;;;21.00;99.90;;;;;;4920051;29;20044;-85
2022/06/06 02:30:14;;;;;;;12.05;4.60;;;20.90;99.90;;;;;;4920242;29;20036;-84
2022/06/06 02:32:41;;;;;;;14.52;5.38;;;20.90;99.90;;;;;;4920432;29;20497;-84
2022/06/06 02:35:13;;;;;;;14.18;4.55;;;20.90;99.90;;;;;;4920503;29;20088;-85
2022/06/06 02:37:40;;;;;;;20.60;4.80;;;20.90;99.90;;;;;;4920588;29;20044;-84
2022/06/06 02:40:09;;;;;;;12.85;4.70;;;20.90;99.90;;;;;;4920448;29;20036;-85
2022/06/06 02:42:36;;;;;;;14.35;4.47;;;21.00;99.90;;;;;;4920119;29;20064;-81
2022/06/06 02:45:02;;;;;;;17.13;4.32;;;21.00;99.90;;;;;;4919440;29;20116;-83
2022/06/06 02:47:29;;;;;;;17.40;4.32;;;21.00;99.90;;;;;;4919720;29;20031;-83
2022/06/06 02:49:55;;;;;;;12.88;4.47;;;21.00;99.90;;;;;;4919661;29;20032;-85
2022/06/06 02:52:33;;;;;;;19.45;4.75;;;21.10;99.90;;;;;;4920170;29;20059;-83
2022/06/06 02:55:00;;;;;;;14.68;3.92;;;21.10;99.90;;;;;;4920042;29;20111;-84
2022/06/06 02:57:26;;;;;;;11.70;4.53;;;21.10;99.90;;;;;;4920304;29;20456;-85
2022/06/06 02:59:54;;;;;;;6.90;4.30;;;21.10;99.90;;;;;;4920280;29;20396;-84
2022/06/06 03:02:20;;;;;;;24.83;4.43;;;21.20;99.90;;;;;;4919835;29;20044;-85
2022/06/06 03:04:48;;;;;;;7.32;3.58;;;21.20;99.90;;;;;;4920095;29;20415;-82
2022/06/06 03:07:26;;;;;;;19.77;4.43;;;21.30;99.90;;;;;;4919914;29;20094;-85
2022/06/06 03:10:13;;;;;;;12.73;4.40;;;21.20;99.90;;;;;;4920144;29;20126;-85
2022/06/06 03:12:59;;;;;;;11.73;4.32;;;21.30;99.90;;;;;;4919982;29;20434;-82
2022/06/06 03:21:50;;;;;;;8.27;2.92;;;21.20;99.90;;;;;;4919668;29;20067;-83
2022/06/06 03:24:46;;;;;;;15.68;4.53;;;21.30;99.90;;;;;;4918638;29;20107;-84
2022/06/06 03:27:19;;;;;;;14.10;3.45;;;21.30;99.90;;;;;;4919213;29;20063;-84
2022/06/06 03:29:54;;;;;;;15.25;4.03;;;21.30;99.90;;;;;;4919021;29;20028;-83
2022/06/06 03:32:29;;;;;;;12.27;3.30;;;21.30;99.90;;;;;;4919114;29;20044;-85
2022/06/06 03:35:14;;;;;;;17.75;3.53;;;21.30;99.90;;;;;;4919120;29;20405;-83
2022/06/06 03:38:17;;;;;;;11.65;3.35;;;21.20;99.90;;;;;;4919648;29;20055;-82
2022/06/06 05:34:01;;;;;;;20.60;1.70;;;28.40;99.90;;;;;;4888718;29;20111;-85
2022/06/06 07:00:46;;;;;;;;;;;;;;;;;;;;;
